Fairbanks, AK

8:37 AM AKST on December 26, 2014 (GMT -0900)
Fairbanks International | Change Station
CLOSE
Current Station
Airport
Location: Fairbanks,
Elevation: 433 ft
Nearby Weather Stations
Active Advisory: Winter Weather Advisory

Elev 433 ft 64.80 °N, 147.88 °W | Updated 3 minutes ago

Light Snow
Light Snow Mist
22 °F
Feels Like 16 °F
N
5
Wind Variable Wind from North

Today
High -- | Low -- °F
--% Chance of Precip.
Yesterday
High -- | Low -- °F
Precip. -- in
10:58 AM 2:44 PM
Waxing Crescent, 27% visible
Pressure 29.85 in
Visibility 6.0 miles
Clouds Scattered Clouds 1200 ft
Mostly Cloudy 2000 ft
Overcast 3000 ft
Windchill 16 °F
Dew Point 17 °F
Humidity 82%
Rainfall 0.00 in
Snow Depth Not available.
UV 0 out of 12
Pollen Not available.
Air Quality Not available.
Flu Activity Not available.
SPECI PAFA 261734Z 36004KT 6SM -SN BR SCT012 BKN020 OVC030 M06/M08 A2985 RMK AO2 T10561083

More Conditions Fewer Conditions

Pressure 29.85 in
Visibility 6.0 miles
Clouds Scattered Clouds 1200 ft
Mostly Cloudy 2000 ft
Overcast 3000 ft
Windchill 16 °F
Dew Point 17 °F
Humidity 82%
Rainfall 0.00 in
Snow Depth Not available.
UV 0 out of 12
Pollen Not available.
Air Quality Not available.
Flu Activity Not available.
SPECI PAFA 261734Z 36004KT 6SM -SN BR SCT012 BKN020 OVC030 M06/M08 A2985 RMK AO2 T10561083

More Conditions Fewer Conditions

10-Day Weather Forecast

Almanac

Astronomy

Dec. 26, 2014 Rise Set
Actual Time
Civil Twilight
Nautical Twilight
Astronomical Twilight
Moon
Length of Visible Light
Length of Day
Tomorrow will be .
, % of the Moon is Illuminated

Today's Extremes

State Highs State Lows

Community

WunderPhotos

Upload Photos

1,780,646 photos uploaded!

WunderBlogs® & News

Nearby

Air Quality

  Air Quality AQ Index Pollutant
Not available.

Snow Depth

Station Depth Elevation

Earthquake Activity

City Distance Mag. Time & Date
Minimum magnitude displayed is 2.5.

Coastal Water Temperatures

Place Temperature

Nearby Weather Stations